createdAt,value
2023-03-31T00:02:24.022Z,23.18
2023-03-31T00:04:54.299Z,23.21
2023-03-31T00:07:25.889Z,23.15
2023-03-31T00:10:06.858Z,23.12
2023-03-31T00:12:40.416Z,23.25
2023-03-31T00:15:10.965Z,23.42
2023-03-31T00:17:44.772Z,23.47
2023-03-31T00:20:15.946Z,23.55
2023-03-31T00:22:48.405Z,23.64
2023-03-31T00:25:18.759Z,23.63
2023-03-31T00:27:51.432Z,23.84
2023-03-31T00:30:22.072Z,23.61
2023-03-31T00:32:52.511Z,23.49
2023-03-31T00:35:23.618Z,23.46
2023-03-31T00:37:54.995Z,23.45
2023-03-31T00:40:24.950Z,23.35
2023-03-31T00:42:55.603Z,23.39
2023-03-31T00:45:30.444Z,23.40
2023-03-31T00:48:17.777Z,23.41
2023-03-31T00:50:59.479Z,23.49
2023-03-31T00:53:33.756Z,23.70
2023-03-31T00:56:09.070Z,23.73
2023-03-31T00:58:44.777Z,23.73
2023-03-31T01:01:20.895Z,23.84
2023-03-31T01:03:51.617Z,23.94
2023-03-31T01:06:21.761Z,24.02
2023-03-31T01:08:53.495Z,24.21
2023-03-31T01:11:28.633Z,24.35
2023-03-31T01:13:59.263Z,24.45
2023-03-31T01:16:29.344Z,24.43
2023-03-31T01:18:59.261Z,24.46
2023-03-31T01:21:48.435Z,24.56
2023-03-31T01:25:02.639Z,24.55
2023-03-31T01:28:07.408Z,24.60
2023-03-31T01:30:58.450Z,24.71
2023-03-31T01:33:43.460Z,24.69
2023-03-31T01:36:55.693Z,24.72
2023-03-31T01:40:03.807Z,24.68
2023-03-31T01:42:39.219Z,24.59
2023-03-31T01:45:39.870Z,24.14
2023-03-31T01:48:21.541Z,23.97
2023-03-31T01:51:14.970Z,23.70
2023-03-31T01:54:10.332Z,23.94
2023-03-31T01:56:48.128Z,23.51
2023-03-31T01:59:53.280Z,23.49
2023-03-31T02:02:34.679Z,23.32
2023-03-31T02:05:28.686Z,22.89
2023-03-31T02:08:03.367Z,22.72
2023-03-31T02:10:34.648Z,22.58
2023-03-31T02:13:07.205Z,22.59
2023-03-31T02:15:40.155Z,22.65
2023-03-31T02:18:15.201Z,22.69
2023-03-31T02:20:48.001Z,22.75
2023-03-31T02:23:23.902Z,22.89
2023-03-31T02:25:57.407Z,22.98
2023-03-31T02:28:29.706Z,22.90
2023-03-31T02:31:22.376Z,22.88
2023-03-31T02:33:53.841Z,22.87
2023-03-31T02:36:24.184Z,22.96
2023-03-31T02:39:17.220Z,22.84
2023-03-31T02:41:47.296Z,22.37
2023-03-31T02:44:19.163Z,22.29
2023-03-31T02:46:49.535Z,22.15
2023-03-31T02:49:21.076Z,22.06
2023-03-31T02:52:02.381Z,22.01
2023-03-31T02:54:48.008Z,21.97
2023-03-31T02:57:45.950Z,21.89
2023-03-31T03:00:28.485Z,21.87
2023-03-31T03:03:29.647Z,21.80
2023-03-31T03:06:20.504Z,21.75
2023-03-31T03:09:13.568Z,21.73
2023-03-31T03:12:03.386Z,21.75
2023-03-31T03:14:36.785Z,21.85
2023-03-31T03:17:59.376Z,21.88
2023-03-31T03:20:29.288Z,22.13
2023-03-31T03:22:59.599Z,22.27
2023-03-31T03:25:31.398Z,22.19
2023-03-31T03:28:02.466Z,21.85
2023-03-31T03:30:32.428Z,21.74
2023-03-31T03:33:02.870Z,21.69
2023-03-31T03:35:32.699Z,21.63
2023-03-31T03:38:02.425Z,21.53
2023-03-31T03:40:32.806Z,21.60
2023-03-31T03:43:02.423Z,21.54
2023-03-31T03:45:32.866Z,21.46
2023-03-31T03:48:03.922Z,21.42
2023-03-31T03:50:36.884Z,21.49
2023-03-31T03:53:07.323Z,21.55
2023-03-31T03:55:37.422Z,21.56
2023-03-31T03:58:10.261Z,21.41
2023-03-31T04:00:40.106Z,21.38
2023-03-31T04:03:10.387Z,21.36
2023-03-31T04:05:40.715Z,21.43
2023-03-31T04:08:11.095Z,21.37
2023-03-31T04:10:50.320Z,21.43
2023-03-31T04:13:21.813Z,21.44
2023-03-31T04:15:51.682Z,21.21
2023-03-31T04:18:24.364Z,21.05
2023-03-31T04:21:07.442Z,21.13
2023-03-31T04:23:47.777Z,21.14
2023-03-31T04:26:27.753Z,21.18
2023-03-31T04:29:00.217Z,21.20
2023-03-31T04:31:32.557Z,21.17
2023-03-31T04:34:03.885Z,21.16
2023-03-31T04:36:35.538Z,21.02
2023-03-31T04:39:05.737Z,20.96
2023-03-31T04:41:36.118Z,20.95
2023-03-31T04:44:06.901Z,20.87
2023-03-31T04:46:37.504Z,20.85
2023-03-31T04:49:07.558Z,20.82
2023-03-31T04:51:37.732Z,20.86
2023-03-31T04:54:07.679Z,20.85
2023-03-31T04:56:37.983Z,20.95
2023-03-31T04:59:09.303Z,21.01
2023-03-31T05:01:39.715Z,21.04
2023-03-31T05:04:10.409Z,21.04
2023-03-31T05:06:40.626Z,21.10
2023-03-31T05:09:11.340Z,20.98
2023-03-31T05:11:41.614Z,20.86
2023-03-31T05:14:11.486Z,20.85
2023-03-31T05:16:43.124Z,20.74
2023-03-31T05:19:12.897Z,20.65
2023-03-31T05:21:42.458Z,20.63
2023-03-31T05:24:12.890Z,20.63
2023-03-31T05:26:43.056Z,20.63
2023-03-31T05:29:13.266Z,20.65
2023-03-31T05:31:43.076Z,20.69
2023-03-31T05:34:12.882Z,20.70
2023-03-31T05:36:44.604Z,20.73
2023-03-31T05:39:14.427Z,20.75
2023-03-31T05:41:44.741Z,20.78
2023-03-31T05:44:14.600Z,20.76
2023-03-31T05:46:45.577Z,20.65
2023-03-31T05:49:18.777Z,20.69
2023-03-31T05:51:49.161Z,20.66
2023-03-31T05:54:18.888Z,20.55
2023-03-31T05:56:49.030Z,20.51
2023-03-31T05:59:20.358Z,20.53
2023-03-31T06:01:50.801Z,20.56
2023-03-31T06:04:20.707Z,20.52
2023-03-31T06:06:51.507Z,20.56
2023-03-31T06:09:21.941Z,20.67
2023-03-31T06:11:52.249Z,20.71
2023-03-31T06:14:22.152Z,20.84
2023-03-31T06:16:52.491Z,20.91
2023-03-31T06:19:22.447Z,20.90
2023-03-31T06:21:53.337Z,20.85
2023-03-31T06:24:23.719Z,20.85
2023-03-31T06:26:54.169Z,20.85
2023-03-31T06:29:24.073Z,20.84
2023-03-31T06:31:54.479Z,20.88
2023-03-31T06:34:28.309Z,20.85
2023-03-31T06:36:58.508Z,20.88
2023-03-31T06:39:28.320Z,20.90
2023-03-31T06:41:58.588Z,20.86
2023-03-31T06:44:30.615Z,20.91
2023-03-31T06:47:01.683Z,20.88
2023-03-31T06:49:34.664Z,20.85
2023-03-31T06:52:05.252Z,20.79
2023-03-31T06:54:37.154Z,20.76
2023-03-31T06:57:07.437Z,20.88
2023-03-31T06:59:37.384Z,20.89
2023-03-31T07:02:07.085Z,20.90
2023-03-31T07:04:37.626Z,20.83
2023-03-31T07:07:07.668Z,20.91
2023-03-31T07:09:37.916Z,20.84
2023-03-31T07:12:07.769Z,20.81
2023-03-31T07:14:38.499Z,20.81
2023-03-31T07:17:08.252Z,20.81
2023-03-31T07:19:39.058Z,20.83
2023-03-31T07:22:09.823Z,20.79
2023-03-31T07:24:39.857Z,20.79
2023-03-31T07:27:10.229Z,20.79
2023-03-31T07:29:39.984Z,20.86
2023-03-31T07:32:10.331Z,20.63
2023-03-31T07:34:41.799Z,20.10
2023-03-31T07:37:11.977Z,19.97
2023-03-31T07:39:41.956Z,19.92
2023-03-31T07:42:12.312Z,19.95
2023-03-31T07:44:42.120Z,19.96
2023-03-31T07:47:12.279Z,20.11
2023-03-31T07:49:42.020Z,20.19
2023-03-31T07:52:11.984Z,20.03
2023-03-31T07:54:42.278Z,20.10
2023-03-31T07:57:12.158Z,20.07
2023-03-31T07:59:42.580Z,20.00
2023-03-31T08:02:15.119Z,19.98
2023-03-31T08:04:46.606Z,19.98
2023-03-31T08:07:17.885Z,19.94
2023-03-31T08:09:49.040Z,19.98
2023-03-31T08:12:18.842Z,19.99
2023-03-31T08:14:49.216Z,20.11
2023-03-31T08:17:19.130Z,20.37
2023-03-31T08:19:49.393Z,20.49
2023-03-31T08:22:19.009Z,20.42
2023-03-31T08:24:49.214Z,20.22
2023-03-31T08:27:19.711Z,20.15
2023-03-31T08:29:49.601Z,20.06
2023-03-31T08:32:19.222Z,20.08
2023-03-31T08:34:49.429Z,20.14
2023-03-31T08:37:19.021Z,20.18
2023-03-31T08:39:48.871Z,20.21
2023-03-31T08:42:26.808Z,20.28
2023-03-31T08:45:05.192Z,20.47
2023-03-31T08:47:38.062Z,20.65
2023-03-31T08:50:15.647Z,20.65
2023-03-31T08:53:05.529Z,20.62
2023-03-31T08:55:53.776Z,20.73
2023-03-31T08:58:35.318Z,20.88
2023-03-31T09:01:28.943Z,20.90
2023-03-31T09:04:16.381Z,20.93
2023-03-31T09:06:53.173Z,20.90
2023-03-31T09:09:50.447Z,20.77
2023-03-31T09:12:35.489Z,20.75
2023-03-31T09:15:16.465Z,20.73
2023-03-31T09:17:47.948Z,20.62
2023-03-31T09:20:28.151Z,20.57
2023-03-31T09:23:35.407Z,20.70
2023-03-31T09:26:07.476Z,20.92
2023-03-31T09:28:40.891Z,20.93
2023-03-31T09:31:18.857Z,20.96
2023-03-31T09:33:49.757Z,20.95
2023-03-31T09:36:23.640Z,21.01
2023-03-31T09:38:53.636Z,21.10
2023-03-31T09:41:23.815Z,21.13
2023-03-31T09:43:53.532Z,21.17
2023-03-31T09:46:28.229Z,21.20
2023-03-31T09:49:16.900Z,21.27
2023-03-31T09:51:51.356Z,21.36
2023-03-31T09:54:30.568Z,21.41
2023-03-31T09:57:00.428Z,21.48
2023-03-31T09:59:36.128Z,21.44
2023-03-31T10:02:34.340Z,21.47
2023-03-31T10:05:07.928Z,21.50
2023-03-31T10:07:37.934Z,21.47
2023-03-31T10:10:18.079Z,21.58
2023-03-31T10:12:53.364Z,21.63
2023-03-31T10:15:27.520Z,21.73
2023-03-31T10:18:00.745Z,21.68
2023-03-31T10:20:39.429Z,21.73
2023-03-31T10:23:30.050Z,21.82
2023-03-31T10:26:01.022Z,21.84
2023-03-31T10:28:35.780Z,21.90
2023-03-31T10:31:07.502Z,22.02
2023-03-31T10:33:46.082Z,22.16
2023-03-31T10:36:31.126Z,22.16
2023-03-31T10:39:01.390Z,22.30
2023-03-31T10:41:32.460Z,22.53
2023-03-31T10:44:05.944Z,22.53
2023-03-31T10:46:45.301Z,22.51
2023-03-31T10:49:27.891Z,22.55
2023-03-31T10:52:00.195Z,22.60
2023-03-31T10:54:30.387Z,22.72
2023-03-31T10:57:04.479Z,22.98
2023-03-31T11:00:00.610Z,23.07
2023-03-31T11:02:47.873Z,22.97
2023-03-31T11:05:33.285Z,22.96
2023-03-31T11:08:30.255Z,23.10
2023-03-31T11:11:18.542Z,23.07
2023-03-31T11:14:33.103Z,23.06
2023-03-31T11:17:18.783Z,23.13
2023-03-31T11:20:20.660Z,23.20
2023-03-31T11:23:13.938Z,23.56
2023-03-31T11:26:00.244Z,23.86
2023-03-31T11:28:42.405Z,24.16
2023-03-31T11:31:22.359Z,24.41
2023-03-31T11:34:26.921Z,24.46
2023-03-31T11:37:08.579Z,24.49
2023-03-31T11:39:59.984Z,24.64
2023-03-31T11:42:40.866Z,24.53
2023-03-31T11:45:21.652Z,24.57
2023-03-31T11:47:56.146Z,25.43
2023-03-31T11:50:34.167Z,26.39
2023-03-31T11:53:35.142Z,27.31
2023-03-31T11:56:08.681Z,27.85
2023-03-31T11:58:47.422Z,28.62
2023-03-31T12:01:23.685Z,29.16
2023-03-31T12:04:00.663Z,29.72
2023-03-31T12:06:34.720Z,29.64
2023-03-31T12:09:25.516Z,29.98
2023-03-31T12:11:59.509Z,30.72
2023-03-31T12:14:31.874Z,31.32
2023-03-31T12:17:15.810Z,32.18
2023-03-31T12:20:11.797Z,32.27
2023-03-31T12:22:46.092Z,32.87
2023-03-31T12:25:18.190Z,32.57
2023-03-31T12:27:51.093Z,32.08
2023-03-31T12:30:35.818Z,32.63
2023-03-31T12:33:28.590Z,32.86
2023-03-31T12:36:16.633Z,32.54
2023-03-31T12:38:58.733Z,32.48
2023-03-31T12:41:40.369Z,33.23
2023-03-31T12:44:27.045Z,32.28
2023-03-31T12:47:25.699Z,32.69
2023-03-31T12:50:04.404Z,33.16
2023-03-31T12:53:07.254Z,33.25
2023-03-31T12:55:42.721Z,33.58
2023-03-31T12:58:36.130Z,32.55
2023-03-31T13:01:15.973Z,32.70
2023-03-31T13:04:14.193Z,32.76
2023-03-31T13:06:45.450Z,32.30
2023-03-31T13:09:15.034Z,32.25
2023-03-31T13:11:50.662Z,32.69
2023-03-31T13:14:38.845Z,33.65
2023-03-31T13:17:26.729Z,34.37
2023-03-31T13:19:59.487Z,34.53
2023-03-31T13:22:38.078Z,35.34
2023-03-31T13:25:33.246Z,34.56
2023-03-31T13:28:11.720Z,34.44
2023-03-31T13:30:42.168Z,35.41
2023-03-31T13:33:42.438Z,35.23
2023-03-31T13:36:12.617Z,36.15
2023-03-31T13:39:00.400Z,36.54
2023-03-31T13:41:30.604Z,36.30
2023-03-31T13:44:06.110Z,36.77
2023-03-31T13:47:03.457Z,36.36
2023-03-31T13:49:36.447Z,37.02
2023-03-31T13:52:11.859Z,36.83
2023-03-31T13:55:08.467Z,36.62
2023-03-31T13:57:52.009Z,36.53
2023-03-31T14:00:55.376Z,37.03
2023-03-31T14:03:38.963Z,36.16
2023-03-31T14:06:14.441Z,35.88
2023-03-31T14:08:55.149Z,36.08
2023-03-31T14:11:32.825Z,35.76
2023-03-31T14:14:11.901Z,35.55
2023-03-31T14:16:47.381Z,36.70
2023-03-31T14:19:17.503Z,37.14
2023-03-31T14:22:02.982Z,37.29
2023-03-31T14:24:46.495Z,37.52
2023-03-31T14:27:44.875Z,36.80
2023-03-31T14:30:36.273Z,36.52
2023-03-31T14:33:43.284Z,37.40
2023-03-31T14:36:29.498Z,36.99
2023-03-31T14:39:05.735Z,37.75
2023-03-31T14:41:39.090Z,37.10
2023-03-31T14:44:14.292Z,37.16
2023-03-31T14:46:44.501Z,37.81
2023-03-31T14:49:22.006Z,37.54
2023-03-31T14:51:54.465Z,38.00
2023-03-31T14:54:24.249Z,38.41
2023-03-31T14:57:00.722Z,37.77
2023-03-31T14:59:34.016Z,36.96
2023-03-31T15:02:06.640Z,36.44
2023-03-31T15:04:47.645Z,37.43
2023-03-31T15:07:19.142Z,37.21
2023-03-31T15:09:52.463Z,37.32
2023-03-31T15:12:24.844Z,37.79
2023-03-31T15:14:59.212Z,37.92
2023-03-31T15:17:37.986Z,37.60
2023-03-31T15:20:30.717Z,38.61
2023-03-31T15:23:01.555Z,38.30
2023-03-31T15:25:39.290Z,37.60
2023-03-31T15:28:14.815Z,37.45
2023-03-31T15:30:48.971Z,37.37
2023-03-31T15:33:27.684Z,37.09
2023-03-31T15:35:59.329Z,36.98
2023-03-31T15:38:32.307Z,36.37
2023-03-31T15:41:02.764Z,36.11
2023-03-31T15:43:44.567Z,35.71
2023-03-31T15:46:42.148Z,35.77
2023-03-31T15:49:23.876Z,36.04
2023-03-31T15:51:57.619Z,35.58
2023-03-31T15:54:44.914Z,35.64
2023-03-31T15:57:23.487Z,35.70
2023-03-31T15:59:58.946Z,35.73
2023-03-31T16:02:50.521Z,35.94
2023-03-31T16:05:53.374Z,36.12
2023-03-31T16:08:33.729Z,35.57
2023-03-31T16:11:08.521Z,36.27
2023-03-31T16:13:43.394Z,36.04
2023-03-31T16:16:16.804Z,36.43
2023-03-31T16:19:06.935Z,36.26
2023-03-31T16:21:53.907Z,36.60
2023-03-31T16:24:32.823Z,36.82
2023-03-31T16:27:07.445Z,36.77
2023-03-31T16:29:39.227Z,37.07
2023-03-31T16:32:14.712Z,37.07
2023-03-31T16:35:03.040Z,36.50
2023-03-31T16:37:33.215Z,36.75
2023-03-31T16:40:03.533Z,36.51
2023-03-31T16:42:39.221Z,36.48
2023-03-31T16:45:14.438Z,36.43
2023-03-31T16:47:45.819Z,36.33
2023-03-31T16:50:16.775Z,37.47
2023-03-31T16:52:46.616Z,37.70
2023-03-31T16:55:17.236Z,37.42
2023-03-31T16:57:47.387Z,37.14
2023-03-31T17:00:18.056Z,37.69
2023-03-31T17:02:48.794Z,37.54
2023-03-31T17:05:19.117Z,37.14
2023-03-31T17:07:48.882Z,37.11
2023-03-31T17:10:19.269Z,36.48
2023-03-31T17:12:49.049Z,36.48
2023-03-31T17:15:19.081Z,36.64
2023-03-31T17:17:49.699Z,36.72
2023-03-31T17:20:21.029Z,37.09
2023-03-31T17:22:51.302Z,37.33
2023-03-31T17:25:21.530Z,37.54
2023-03-31T17:27:52.174Z,37.62
2023-03-31T17:30:22.268Z,38.24
2023-03-31T17:32:52.447Z,38.26
2023-03-31T17:35:23.576Z,39.37
2023-03-31T17:37:56.794Z,39.58
2023-03-31T17:40:28.102Z,38.78
2023-03-31T17:42:58.063Z,37.59
2023-03-31T17:45:27.692Z,37.91
2023-03-31T17:47:58.085Z,37.24
2023-03-31T17:50:29.562Z,37.24
2023-03-31T17:53:00.112Z,37.12
2023-03-31T17:55:30.016Z,36.97
2023-03-31T17:58:00.455Z,36.96
2023-03-31T18:00:30.435Z,37.41
2023-03-31T18:03:00.757Z,37.20
2023-03-31T18:05:30.868Z,37.39
2023-03-31T18:08:01.488Z,37.23
2023-03-31T18:10:31.328Z,36.89
2023-03-31T18:13:01.684Z,37.10
2023-03-31T18:15:31.490Z,36.73
2023-03-31T18:18:02.803Z,36.85
2023-03-31T18:20:33.646Z,36.99
2023-03-31T18:23:04.090Z,36.70
2023-03-31T18:25:34.531Z,36.74
2023-03-31T18:28:05.306Z,36.10
2023-03-31T18:30:35.110Z,35.66
2023-03-31T18:33:04.797Z,35.77
2023-03-31T18:35:35.249Z,36.10
2023-03-31T18:38:05.133Z,36.47
2023-03-31T18:40:35.566Z,36.87
2023-03-31T18:43:06.059Z,36.46
2023-03-31T18:45:39.610Z,36.02
2023-03-31T18:48:09.436Z,35.27
2023-03-31T18:50:39.076Z,34.35
2023-03-31T18:53:09.233Z,33.91
2023-03-31T18:55:39.144Z,34.18
2023-03-31T18:58:10.253Z,33.79
2023-03-31T19:00:43.467Z,33.71
2023-03-31T19:03:14.907Z,33.94
2023-03-31T19:05:44.817Z,34.17
2023-03-31T19:08:15.185Z,34.34
2023-03-31T19:10:45.186Z,34.29
2023-03-31T19:13:18.500Z,33.94
2023-03-31T19:15:48.391Z,33.47
2023-03-31T19:18:18.291Z,33.09
2023-03-31T19:20:49.833Z,32.69
2023-03-31T19:23:19.566Z,32.60
2023-03-31T19:25:53.714Z,32.77
2023-03-31T19:28:25.298Z,32.75
2023-03-31T19:30:57.802Z,32.63
2023-03-31T19:33:28.714Z,32.59
2023-03-31T19:35:58.892Z,32.36
2023-03-31T19:38:33.061Z,32.24
2023-03-31T19:41:02.864Z,32.08
2023-03-31T19:43:33.697Z,32.18
2023-03-31T19:46:03.552Z,32.08
2023-03-31T19:48:34.883Z,32.13
2023-03-31T19:51:09.617Z,32.09
2023-03-31T19:53:40.556Z,31.82
2023-03-31T19:56:13.797Z,31.83
2023-03-31T19:58:43.740Z,31.77
2023-03-31T20:01:23.636Z,31.70
2023-03-31T20:03:57.139Z,31.72
2023-03-31T20:06:29.746Z,31.67
2023-03-31T20:09:01.650Z,31.61
2023-03-31T20:11:33.525Z,31.47
2023-03-31T20:14:04.901Z,31.42
2023-03-31T20:16:36.138Z,31.28
2023-03-31T20:19:07.355Z,31.21
2023-03-31T20:21:39.003Z,31.13
2023-03-31T20:24:09.585Z,31.05
2023-03-31T20:26:39.725Z,30.99
2023-03-31T20:29:09.372Z,30.82
2023-03-31T20:31:41.196Z,30.71
2023-03-31T20:34:16.151Z,30.65
2023-03-31T20:36:50.319Z,30.54
2023-03-31T20:39:21.082Z,30.52
2023-03-31T20:41:51.573Z,30.59
2023-03-31T20:44:22.469Z,30.51
2023-03-31T20:46:53.518Z,30.41
2023-03-31T20:49:23.734Z,30.35
2023-03-31T20:51:53.541Z,30.32
2023-03-31T20:54:23.586Z,30.25
2023-03-31T20:56:53.891Z,30.27
2023-03-31T20:59:24.792Z,30.20
2023-03-31T21:01:55.153Z,30.15
2023-03-31T21:05:20.256Z,30.14
2023-03-31T21:08:08.921Z,29.69
2023-03-31T21:10:46.074Z,29.55
2023-03-31T21:13:19.082Z,29.82
2023-03-31T21:15:51.722Z,29.78
2023-03-31T21:18:22.506Z,29.58
2023-03-31T21:20:58.121Z,29.33
2023-03-31T21:23:29.701Z,29.09
2023-03-31T21:26:02.837Z,28.93
2023-03-31T21:28:35.706Z,28.92
2023-03-31T21:31:09.826Z,28.86
2023-03-31T21:33:44.027Z,28.83
2023-03-31T21:36:19.849Z,28.69
2023-03-31T21:38:51.405Z,28.55
2023-03-31T21:41:27.461Z,28.44
2023-03-31T21:44:01.701Z,28.37
2023-03-31T21:46:34.167Z,28.23
2023-03-31T21:49:05.513Z,28.11
2023-03-31T21:51:35.471Z,27.90
2023-03-31T21:54:06.065Z,27.88
2023-03-31T21:56:35.910Z,27.82
2023-03-31T21:59:06.489Z,27.83
2023-03-31T22:01:36.525Z,27.89
2023-03-31T22:04:08.580Z,27.97
2023-03-31T22:06:40.350Z,28.01
2023-03-31T22:09:10.857Z,28.01
2023-03-31T22:11:43.302Z,28.03
2023-03-31T22:14:13.927Z,27.97
2023-03-31T22:16:44.151Z,27.91
2023-03-31T22:19:15.167Z,27.93
2023-03-31T22:21:46.160Z,27.90
2023-03-31T22:24:16.586Z,27.91
2023-03-31T22:26:46.705Z,27.93
2023-03-31T22:29:17.714Z,27.99
2023-03-31T22:31:47.858Z,27.98
2023-03-31T22:34:20.601Z,28.03
2023-03-31T22:36:50.654Z,28.10
2023-03-31T22:39:21.571Z,28.15
2023-03-31T22:41:51.948Z,28.21
2023-03-31T22:44:22.877Z,28.27
2023-03-31T22:46:52.859Z,28.25
2023-03-31T22:49:23.375Z,28.27
2023-03-31T22:51:55.788Z,28.30
2023-03-31T22:54:26.819Z,28.31
2023-03-31T22:56:58.271Z,28.33
2023-03-31T22:59:28.845Z,28.34
2023-03-31T23:01:58.811Z,28.35
2023-03-31T23:04:29.420Z,28.12
2023-03-31T23:06:59.388Z,27.46
2023-03-31T23:09:29.892Z,26.83
2023-03-31T23:11:59.951Z,26.51
2023-03-31T23:14:30.440Z,26.23
2023-03-31T23:17:00.551Z,25.97
2023-03-31T23:19:31.030Z,25.65
2023-03-31T23:22:03.210Z,25.18
2023-03-31T23:24:33.736Z,25.11
2023-03-31T23:27:03.717Z,24.95
2023-03-31T23:29:34.743Z,24.91
2023-03-31T23:32:05.311Z,24.84
2023-03-31T23:34:35.814Z,24.74
2023-03-31T23:37:05.813Z,24.76
2023-03-31T23:39:36.386Z,24.57
2023-03-31T23:42:09.342Z,24.39
2023-03-31T23:44:39.819Z,24.37
2023-03-31T23:47:09.831Z,24.31
2023-03-31T23:49:40.362Z,24.29
2023-03-31T23:52:10.348Z,24.34
2023-03-31T23:54:40.821Z,24.34
2023-03-31T23:57:11.046Z,24.33
2023-03-31T23:59:41.654Z,24.37
